Time;durP1;ratioP1;P1;durP2;ratioP2;P2;SDS_P1;SDS_P2;PMS_P1;PMS_P2;Temp;Humidity;BMP_temperature;BMP_pressure;BME280_temperature;BME280_humidity;BME280_pressure;Samples;Min_cycle;Max_cycle;Signal;HPM_P1;HPM_P2
2021/11/13 00:02:58;;;;;;;70.50;28.50;;;;;;;5.32;88.21;100617.36;102792;1321;139258;-63
2021/11/13 00:05:45;;;;;;;66.00;28.80;;;;;;;5.33;88.15;100609.08;102883;1321;96531;-63
2021/11/13 00:08:32;;;;;;;74.00;29.10;;;;;;;5.35;88.41;100609.41;102798;1321;138548;-63
2021/11/13 00:11:21;;;;;;;65.80;27.60;;;;;;;5.35;88.33;100610.45;102747;1321;108845;-63
2021/11/13 00:14:15;;;;;;;56.40;25.60;;;;;;;5.36;88.50;100608.20;102705;1319;138986;-63
2021/11/13 00:17:03;;;;;;;59.20;27.00;;;;;;;5.34;88.76;100610.11;102542;1321;331843;-63
2021/11/13 00:19:50;;;;;;;;;;;;;;;5.31;88.71;100611.16;103657;1319;139397;-64
2021/11/13 00:22:37;;;;;;;66.70;28.30;;;;;;;5.28;88.91;100613.77;103118;1322;132831;-63
2021/11/13 00:25:24;;;;;;;66.80;27.90;;;;;;;5.27;88.97;100618.77;103593;1319;109760;-63
2021/11/13 00:28:10;;;;;;;;;;;;;;;5.26;89.03;100619.65;103492;1319;138851;-63
2021/11/13 00:31:28;;;;;;;;;;;;;;;5.26;89.31;100612.05;16929;1357;648025;-62
2021/11/13 00:32:01;;;;;;;74.20;27.80;;;;;;;5.24;89.26;100615.52;17546;1326;123894;-62
2021/11/13 00:32:33;;;;;;;59.80;29.10;;;;;;;5.25;89.04;100608.61;17642;1330;109172;-61
2021/11/13 00:33:06;;;;;;;63.30;28.10;;;;;;;5.26;89.26;100613.27;17633;1330;109743;-61
2021/11/13 00:33:38;;;;;;;69.50;29.60;;;;;;;5.28;89.39;100608.42;17812;1330;108642;-62
2021/11/13 00:34:10;;;;;;;61.90;29.50;;;;;;;5.30;89.29;100606.00;17643;1326;109732;-62
2021/11/13 00:34:41;;;;;;;75.80;28.90;;;;;;;5.31;89.46;100610.30;17827;1329;109373;-62
2021/11/13 00:35:14;;;;;;;61.10;29.10;;;;;;;5.34;89.05;100608.38;17881;1319;110175;-61
2021/11/13 00:35:46;;;;;;;64.50;29.40;;;;;;;5.37;89.23;100607.67;17873;1327;108924;-62
2021/11/13 00:36:18;;;;;;;67.00;27.60;;;;;;;5.39;88.90;100605.10;17881;1319;109169;-62
2021/11/13 00:36:49;;;;;;;69.10;29.80;;;;;;;5.41;88.97;100605.25;17916;1326;108647;-62
2021/11/13 00:37:21;;;;;;;74.80;29.10;;;;;;;5.45;88.80;100598.52;17889;1321;109702;-61
2021/11/13 00:37:55;;;;;;;68.70;29.40;;;;;;;5.48;88.88;100600.39;17791;1326;138250;-62
2021/11/13 00:38:27;;;;;;;64.30;30.00;;;;;;;5.51;88.45;100601.91;17870;1326;108893;-62
2021/11/13 00:38:58;;;;;;;66.20;30.10;;;;;;;5.54;88.56;100602.58;17907;1322;108801;-62
2021/11/13 00:39:30;;;;;;;62.10;28.20;;;;;;;5.56;88.14;100601.73;17850;1328;109465;-62
2021/11/13 00:40:03;;;;;;;66.90;30.10;;;;;;;5.60;88.18;100601.02;17886;1325;108736;-62
2021/11/13 00:40:38;;;;;;;74.00;30.10;;;;;;;5.64;88.27;100606.15;17900;1326;108952;-62
2021/11/13 00:41:09;;;;;;;74.60;29.00;;;;;;;5.66;88.41;100606.48;17857;1322;108906;-62
2021/11/13 00:41:41;;;;;;;65.20;31.10;;;;;;;5.69;88.09;100606.29;17854;1322;108926;-61
2021/11/13 00:42:13;;;;;;;65.90;31.10;;;;;;;5.71;87.92;100604.54;17874;1325;107965;-62
2021/11/13 00:42:47;;;;;;;67.20;32.20;;;;;;;5.74;87.99;100608.17;17641;1328;110226;-62
2021/11/13 00:43:21;;;;;;;76.50;31.30;;;;;;;5.78;87.84;100612.11;17666;1325;106835;-63
2021/11/13 00:43:53;;;;;;;68.50;32.20;;;;;;;5.80;87.67;100607.09;17795;1325;137752;-62
2021/11/13 00:44:24;;;;;;;72.20;31.70;;;;;;;5.83;87.58;100613.10;17897;1326;107638;-62
2021/11/13 00:44:56;;;;;;;74.10;32.00;;;;;;;5.86;87.34;100609.62;17888;1323;107819;-61
2021/11/13 00:45:28;;;;;;;79.20;33.50;;;;;;;5.88;87.61;100611.85;17878;1324;109000;-61
2021/11/13 00:46:00;;;;;;;68.50;31.50;;;;;;;5.90;87.22;100613.59;17801;1319;146571;-62
2021/11/13 00:46:32;;;;;;;66.80;33.00;;;;;;;5.92;87.31;100610.64;17711;1324;107079;-62
2021/11/13 00:47:08;;;;;;;73.20;32.70;;;;;;;5.95;87.57;100606.15;17654;1322;108978;-61
2021/11/13 00:47:40;;;;;;;64.80;31.90;;;;;;;5.99;87.43;100609.05;17711;1317;109595;-63
2021/11/13 00:48:12;;;;;;;66.00;31.70;;;;;;;6.02;87.18;100608.16;17680;1324;108634;-63
2021/11/13 00:48:46;;;;;;;59.60;31.00;;;;;;;6.04;87.26;100607.45;17654;1317;108810;-64
2021/11/13 00:49:19;;;;;;;63.80;30.30;;;;;;;6.06;87.31;100604.14;17688;1324;109221;-64
2021/11/13 00:49:50;;;;;;;63.00;30.00;;;;;;;6.10;86.97;100601.69;17882;1319;108992;-61
2021/11/13 00:50:23;;;;;;;57.10;30.80;;;;;;;6.12;86.74;100602.40;17788;1325;137571;-61
2021/11/13 00:50:55;;;;;;;64.90;31.20;;;;;;;6.14;86.73;100600.82;17894;1324;107337;-62
2021/11/13 00:51:27;;;;;;;54.80;29.90;;;;;;;6.17;86.94;100601.48;17889;1325;109012;-61
2021/11/13 00:51:59;;;;;;;55.00;29.00;;;;;;;6.19;87.02;100597.14;17900;1323;106755;-61
2021/11/13 00:52:31;;;;;;;57.70;30.00;;;;;;;6.21;86.63;100596.61;17900;1323;108899;-62
2021/11/13 00:53:02;;;;;;;60.40;29.30;;;;;;;6.22;86.55;100592.11;17916;1322;108011;-62
2021/11/13 00:53:34;;;;;;;60.60;29.00;;;;;;;6.23;86.65;100596.41;17920;1318;108774;-62
2021/11/13 00:54:07;;;;;;;56.20;29.30;;;;;;;6.23;86.33;100594.34;17918;1321;108759;-62
2021/11/13 00:54:40;;;;;;;54.40;28.70;;;;;;;6.24;86.37;100608.33;17902;1319;105809;-62
2021/11/13 00:55:14;;;;;;;57.60;28.90;;;;;;;6.24;86.01;100610.05;17959;1320;108810;-62
2021/11/13 00:55:47;;;;;;;57.50;29.60;;;;;;;6.20;86.05;100591.43;17954;1321;107608;-62
2021/11/13 00:56:19;;;;;;;58.60;29.40;;;;;;;6.22;86.17;100606.96;17770;1320;137516;-62
2021/11/13 00:56:51;;;;;;;55.20;30.60;;;;;;;6.21;86.01;100601.09;17957;1319;108377;-62
2021/11/13 00:57:23;;;;;;;65.80;31.20;;;;;;;6.20;86.02;100601.80;17963;1317;109622;-62
2021/11/13 00:57:57;;;;;;;61.30;30.80;;;;;;;6.19;86.05;100594.73;17985;1320;109089;-61
2021/11/13 00:58:28;;;;;;;65.60;32.90;;;;;;;6.19;85.82;100593.52;17948;1313;108962;-62
2021/11/13 00:59:00;;;;;;;64.20;31.50;;;;;;;6.18;86.02;100599.91;17992;1320;108897;-62
2021/11/13 00:59:32;;;;;;;68.40;31.40;;;;;;;6.20;85.79;100599.73;17953;1314;109172;-62
2021/11/13 01:00:12;;;;;;;59.40;30.00;;;;;;;6.21;85.86;100596.43;17940;1313;108907;-62
2021/11/13 01:00:43;;;;;;;60.10;29.90;;;;;;;6.22;85.92;100598.16;17980;1311;108012;-62
2021/11/13 01:02:17;;;;;;;;;;;;;;;6.21;85.84;100595.57;14811;1326;141771;-63
2021/11/13 01:02:50;;;;;;;56.90;29.50;;;;;;;6.20;85.80;100602.99;17676;1331;111253;-62
2021/11/13 01:03:22;;;;;;;61.70;30.20;;;;;;;6.20;85.67;100605.60;17440;1324;109592;-62
2021/11/13 01:03:54;;;;;;;57.40;29.80;;;;;;;6.20;85.79;100603.86;17728;1329;110253;-61
2021/11/13 01:04:26;;;;;;;57.00;30.20;;;;;;;6.20;85.88;100604.20;17788;1324;108975;-62
2021/11/13 01:04:58;;;;;;;60.10;29.00;;;;;;;6.20;85.79;100604.55;17770;1328;108900;-62
2021/11/13 01:05:31;;;;;;;60.30;29.30;;;;;;;6.22;85.72;100600.40;17798;1327;109038;-62
2021/11/13 01:06:03;;;;;;;56.50;29.70;;;;;;;6.25;86.02;100602.08;17780;1331;107277;-62
2021/11/13 01:06:35;;;;;;;57.70;30.20;;;;;;;6.27;85.86;100601.20;17765;1328;109128;-62
2021/11/13 01:07:07;;;;;;;57.30;28.70;;;;;;;6.29;85.78;100601.91;17597;1327;108744;-61
2021/11/13 01:07:40;;;;;;;53.10;28.50;;;;;;;6.30;85.84;100600.16;17740;1328;109157;-62
2021/11/13 01:08:16;;;;;;;58.40;30.10;;;;;;;6.33;85.71;100600.30;17819;1328;108210;-62
2021/11/13 01:08:48;;;;;;;53.90;28.90;;;;;;;6.34;85.87;100600.98;17724;1328;138190;-62
2021/11/13 01:11:40;;;;;;;57.60;29.90;;;;;;;6.38;85.42;100601.45;100491;1354;636370;-62
2021/11/13 01:14:12;;;;;;;60.20;28.60;;;;;;;6.28;85.74;100607.42;102600;1322;94473;-62
2021/11/13 01:16:44;;;;;;;56.20;27.40;;;;;;;6.16;85.57;100603.91;102720;1329;136882;-62
2021/11/13 01:19:17;;;;;;;52.80;27.00;;;;;;;6.04;85.84;100594.67;104190;1320;107435;-62
2021/11/13 01:21:49;;;;;;;54.20;26.50;;;;;;;5.97;86.31;100590.77;104057;1326;139932;-62
2021/11/13 01:24:21;;;;;;;50.00;25.50;;;;;;;5.91;86.46;100591.83;103519;1323;192479;-62
2021/11/13 01:26:53;;;;;;;47.00;24.40;;;;;;;5.86;86.63;100579.25;104574;1317;138040;-63
2021/11/13 01:29:26;;;;;;;45.30;23.40;;;;;;;5.83;86.88;100581.17;104810;1313;93229;-62
2021/11/13 01:31:58;;;;;;;48.00;23.60;;;;;;;5.81;87.04;100565.50;104731;1314;108497;-62
2021/11/13 01:34:30;;;;;;;46.70;23.70;;;;;;;5.76;87.19;100567.44;104706;1313;137514;-62
2021/11/13 01:37:02;;;;;;;51.30;23.70;;;;;;;5.69;87.08;100563.84;103672;1313;108901;-62
2021/11/13 01:39:36;;;;;;;45.80;21.70;;;;;;;5.65;87.23;100561.29;103734;1317;138174;-62
2021/11/13 01:42:09;;;;;;;42.30;21.10;;;;;;;5.64;87.15;100550.09;103364;1316;95165;-62
2021/11/13 01:44:43;;;;;;;41.10;20.90;;;;;;;5.66;87.34;100559.21;104701;1313;138536;-63
2021/11/13 01:47:16;;;;;;;42.30;21.30;;;;;;;5.65;87.33;100559.40;103921;1313;108959;-63
2021/11/13 01:49:48;;;;;;;42.00;21.60;;;;;;;5.64;87.48;100558.54;103499;1313;108893;-62
2021/11/13 01:52:21;;;;;;;44.50;22.70;;;;;;;5.65;87.60;100558.35;103402;1313;137989;-62
2021/11/13 01:54:53;;;;;;;50.90;25.00;;;;;;;5.65;87.41;100557.67;103515;1313;95156;-62
2021/11/13 01:57:32;;;;;;;45.60;23.60;;;;;;;5.63;87.81;100555.61;103386;1313;137568;-62
2021/11/13 02:00:06;;;;;;;46.00;22.90;;;;;;;5.62;87.79;100554.25;103445;1314;109803;-62
2021/11/13 02:02:44;;;;;;;44.10;21.90;;;;;;;5.62;87.57;100555.80;104315;1313;139505;-63
2021/11/13 02:05:16;;;;;;;48.90;23.30;;;;;;;5.62;87.68;100557.35;103734;1316;95218;-62
2021/11/13 02:07:49;;;;;;;47.40;22.40;;;;;;;5.62;87.61;100553.73;103244;1316;95269;-62
2021/11/13 02:10:26;;;;;;;52.50;25.40;;;;;;;5.63;88.10;100548.89;103112;1316;137915;-62
2021/11/13 02:12:59;;;;;;;56.60;26.90;;;;;;;5.62;87.84;100548.21;103242;1316;108900;-63
2021/11/13 02:15:31;;;;;;;53.40;26.90;;;;;;;5.60;87.92;100541.84;103095;1317;137977;-62
2021/11/13 02:18:04;;;;;;;53.20;26.10;;;;;;;5.57;88.23;100531.69;103294;1315;95887;-62
2021/11/13 02:20:39;;;;;;;54.90;25.60;;;;;;;5.54;87.96;100530.66;103143;1315;138193;-62
2021/11/13 02:23:15;;;;;;;54.40;25.60;;;;;;;5.56;87.97;100531.16;103710;1316;109748;-62
2021/11/13 02:25:48;;;;;;;57.30;27.60;;;;;;;5.61;88.05;100533.73;103205;1317;108957;-63
2021/11/13 02:28:22;;;;;;;50.20;24.60;;;;;;;5.65;87.87;100531.10;103134;1317;138130;-62
2021/11/13 02:30:57;;;;;;;56.90;25.80;;;;;;;5.65;87.92;100533.52;103207;1317;97384;-62
2021/11/13 02:33:30;;;;;;;56.30;26.20;;;;;;;5.60;87.69;100531.84;103329;1316;137286;-62
2021/11/13 02:36:04;;;;;;;61.00;27.70;;;;;;;5.57;87.89;100539.80;103240;1317;109772;-62
2021/11/13 02:38:38;;;;;;;61.50;26.50;;;;;;;5.55;87.73;100531.34;104482;1316;138653;-63
2021/11/13 02:41:14;;;;;;;54.70;25.60;;;;;;;5.56;88.01;100527.20;104183;1315;108638;-62
2021/11/13 02:43:47;;;;;;;59.40;27.70;;;;;;;5.58;87.79;100530.64;103404;1316;95189;-62
2021/11/13 02:46:19;;;;;;;61.50;28.70;;;;;;;5.61;87.88;100529.08;103018;1316;137949;-62
2021/11/13 02:48:52;;;;;;;62.30;28.90;;;;;;;5.63;87.89;100529.56;103230;1316;109680;-62
2021/11/13 02:51:25;;;;;;;65.10;30.50;;;;;;;5.63;87.57;100534.58;103146;1316;137743;-62
2021/11/13 02:53:57;;;;;;;75.30;32.30;;;;;;;5.60;87.76;100529.95;104592;1316;108893;-63
2021/11/13 02:56:30;;;;;;;74.00;32.30;;;;;;;5.56;87.81;100524.78;103757;1316;137531;-63
2021/11/13 02:59:02;;;;;;;70.90;31.40;;;;;;;5.54;87.53;100531.52;104293;1313;94544;-63
2021/11/13 03:01:36;;;;;;;69.50;31.40;;;;;;;5.52;87.86;100524.81;103238;1316;109841;-62
2021/11/13 03:04:08;;;;;;;71.00;31.20;;;;;;;5.51;87.97;100524.13;103205;1317;138611;-62
2021/11/13 03:06:40;;;;;;;68.90;31.70;;;;;;;5.49;88.05;100522.59;103325;1314;109243;-62
2021/11/13 03:09:13;;;;;;;69.00;30.50;;;;;;;5.48;87.94;100520.54;103250;1317;138266;-62
2021/11/13 03:11:45;;;;;;;70.30;31.00;;;;;;;5.49;88.11;100516.39;103216;1316;96896;-62
2021/11/13 03:14:19;;;;;;;67.90;32.10;;;;;;;5.52;87.79;100519.64;103203;1311;110565;-62
2021/11/13 03:16:52;;;;;;;75.30;34.00;;;;;;;5.53;87.76;100518.59;103132;1316;138481;-62
2021/11/13 03:19:26;;;;;;;78.20;35.10;;;;;;;5.52;87.91;100519.46;103258;1316;108896;-62
2021/11/13 03:21:58;;;;;;;71.70;33.20;;;;;;;5.52;87.82;100519.80;103136;1314;137872;-62
2021/11/13 03:24:32;;;;;;;70.40;30.90;;;;;;;5.48;87.92;100526.22;103231;1315;95996;-62
2021/11/13 03:27:05;;;;;;;74.00;31.80;;;;;;;5.44;87.85;100527.64;103170;1314;138599;-62
2021/11/13 03:29:41;;;;;;;67.70;31.40;;;;;;;5.41;87.86;100524.04;104610;1316;108849;-63
2021/11/13 03:32:13;;;;;;;73.70;32.00;;;;;;;5.40;87.93;100522.66;104634;1313;107001;-63
2021/11/13 03:34:45;;;;;;;65.70;30.50;;;;;;;5.42;87.97;100518.17;103356;1319;137775;-63
2021/11/13 03:37:17;;;;;;;67.90;30.90;;;;;;;5.46;88.01;100525.02;103313;1314;95141;-62
2021/11/13 03:39:49;;;;;;;71.30;31.40;;;;;;;5.47;87.80;100519.67;103640;1320;137122;-63
2021/11/13 03:42:22;;;;;;;76.40;34.10;;;;;;;5.44;87.64;100525.05;104646;1316;109931;-63
2021/11/13 03:44:54;;;;;;;69.30;30.60;;;;;;;5.40;87.84;100521.63;103213;1313;138271;-62
2021/11/13 03:47:27;;;;;;;67.50;29.50;;;;;;;5.37;87.83;100520.08;103260;1316;95195;-62
2021/11/13 03:49:59;;;;;;;70.80;30.50;;;;;;;5.34;87.60;100512.69;103315;1314;95352;-62
2021/11/13 03:52:32;;;;;;;71.90;30.30;;;;;;;5.32;88.11;100510.46;103173;1314;138162;-62
2021/11/13 03:55:06;;;;;;;70.80;30.10;;;;;;;5.32;88.07;100513.91;103278;1317;109292;-62
2021/11/13 03:57:38;;;;;;;70.30;30.80;;;;;;;5.32;88.17;100510.98;104495;1313;138263;-62
2021/11/13 04:00:12;;;;;;;70.70;31.00;;;;;;;5.33;88.06;100509.94;104539;1306;94342;-63
2021/11/13 04:02:46;;;;;;;77.30;33.00;;;;;;;5.33;88.07;100504.07;103849;1316;138448;-63
2021/11/13 04:05:19;;;;;;;74.50;33.20;;;;;;;5.36;88.27;100495.60;103336;1317;110460;-63
2021/11/13 04:07:52;;;;;;;74.00;31.90;;;;;;;5.35;87.91;100491.98;103332;1313;108901;-62
2021/11/13 04:10:25;;;;;;;75.10;33.60;;;;;;;5.38;88.04;100491.98;103192;1313;138724;-62
2021/11/13 04:12:57;;;;;;;72.50;32.20;;;;;;;5.42;88.06;100490.92;103260;1316;95171;-62
2021/11/13 04:15:30;;;;;;;72.00;33.20;;;;;;;5.43;87.98;100492.64;103049;1318;138229;-62
2021/11/13 04:18:02;;;;;;;66.90;30.30;;;;;;;5.43;87.75;100487.81;103347;1313;109809;-62
2021/11/13 04:20:35;;;;;;;62.90;29.30;;;;;;;5.46;87.89;100492.09;103229;1313;138186;-62
2021/11/13 04:23:06;;;;;;;68.50;31.30;;;;;;;5.45;87.70;100497.28;103270;1313;108849;-62
2021/11/13 04:25:39;;;;;;;71.30;32.00;;;;;;;5.42;87.64;100494.38;103281;1316;95205;-62
2021/11/13 04:28:11;;;;;;;76.30;33.60;;;;;;;5.38;87.64;100484.22;103127;1315;138686;-61
2021/11/13 04:30:43;;;;;;;77.70;33.90;;;;;;;5.34;88.07;100479.23;103319;1314;110794;-61
2021/11/13 04:33:16;;;;;;;78.10;34.10;;;;;;;5.31;88.24;100476.85;103182;1317;138413;-62
2021/11/13 04:36:00;;;;;;;71.60;33.30;;;;;;;5.28;88.49;100476.36;103228;1313;107719;-62
2021/11/13 04:38:33;;;;;;;71.80;33.20;;;;;;;5.24;88.58;100476.91;103142;1316;138458;-63
2021/11/13 04:41:08;;;;;;;68.10;33.40;;;;;;;5.21;88.44;100475.73;103337;1313;95150;-62
2021/11/13 04:43:40;;;;;;;79.60;35.50;;;;;;;5.20;88.66;100482.96;103390;1314;109755;-62
2021/11/13 04:46:12;;;;;;;69.90;33.30;;;;;;;5.19;89.16;100482.44;103228;1315;138758;-62
2021/11/13 04:48:46;;;;;;;74.30;34.60;;;;;;;5.17;88.88;100486.59;103354;1313;109208;-62
2021/11/13 04:51:18;;;;;;;73.90;36.50;;;;;;;5.15;89.18;100491.95;103197;1313;138127;-62
2021/11/13 04:53:51;;;;;;;81.40;37.20;;;;;;;5.14;89.10;100489.70;103275;1314;95144;-62
2021/11/13 04:56:23;;;;;;;82.00;36.40;;;;;;;5.14;89.15;100492.47;104641;1315;109808;-63
2021/11/13 04:58:55;;;;;;;77.90;36.80;;;;;;;5.15;89.18;100488.15;103203;1316;138582;-62
2021/11/13 05:01:27;;;;;;;78.50;36.60;;;;;;;5.13;89.43;100483.70;103307;1313;108684;-62
2021/11/13 05:04:00;;;;;;;78.50;38.10;;;;;;;5.11;89.42;100474.92;103148;1316;138359;-62
2021/11/13 05:06:32;;;;;;;71.20;35.60;;;;;;;5.11;89.55;100477.50;103357;1314;95218;-61
2021/11/13 05:09:04;;;;;;;73.60;36.20;;;;;;;5.12;89.18;100485.60;103195;1316;138644;-61
2021/11/13 05:11:37;;;;;;;74.00;36.70;;;;;;;5.14;89.13;100488.17;103321;1313;107830;-62
2021/11/13 05:14:09;;;;;;;80.00;39.60;;;;;;;5.15;88.77;100486.09;103274;1315;106991;-62
2021/11/13 05:16:42;;;;;;;75.40;35.90;;;;;;;5.16;88.88;100487.98;104312;1314;138672;-62
2021/11/13 05:19:14;;;;;;;74.40;35.40;;;;;;;5.18;88.77;100493.65;104626;1314;93760;-62
2021/11/13 05:21:46;;;;;;;69.40;34.60;;;;;;;5.18;88.89;100492.62;103337;1313;138108;-62
2021/11/13 05:24:18;;;;;;;68.90;34.10;;;;;;;5.19;88.69;100500.20;103296;1316;109071;-62
2021/11/13 05:26:50;;;;;;;66.70;33.00;;;;;;;5.25;88.58;100504.84;103147;1316;138659;-62
2021/11/13 05:29:23;;;;;;;64.40;30.70;;;;;;;5.27;88.54;100497.23;103220;1314;96564;-62
2021/11/13 05:31:55;;;;;;;64.60;32.40;;;;;;;5.30;88.22;100495.65;103284;1316;96673;-62
2021/11/13 05:34:27;;;;;;;70.70;35.00;;;;;;;5.32;88.20;100487.19;103553;1310;137708;-62
2021/11/13 05:37:00;;;;;;;61.90;31.80;;;;;;;5.32;88.05;100487.70;103959;1312;108911;-62
2021/11/13 05:39:36;;;;;;;56.50;29.60;;;;;;;5.33;87.96;100492.70;103485;1312;138568;-63
2021/11/13 05:42:09;;;;;;;63.40;31.00;;;;;;;5.34;88.29;100492.35;103614;1313;96620;-62
2021/11/13 05:44:41;;;;;;;60.00;30.40;;;;;;;5.33;88.11;100487.70;103953;1312;138476;-63
2021/11/13 05:47:14;;;;;;;64.40;32.50;;;;;;;5.34;88.10;100477.86;104949;1312;111374;-63
2021/11/13 05:49:46;;;;;;;64.10;31.30;;;;;;;5.34;88.07;100477.16;103970;1319;107932;-63
2021/11/13 05:52:18;;;;;;;68.20;33.90;;;;;;;5.35;87.90;100484.40;104074;1310;138435;-63
2021/11/13 05:54:50;;;;;;;66.30;34.00;;;;;;;5.35;87.81;100487.85;104807;1312;95028;-63
2021/11/13 05:57:22;;;;;;;68.70;33.50;;;;;;;5.34;87.88;100491.65;104128;1312;138308;-62
2021/11/13 05:59:58;;;;;;;66.50;32.30;;;;;;;5.34;87.67;100492.34;103664;1310;111184;-62
2021/11/13 06:02:30;;;;;;;60.60;32.00;;;;;;;5.35;87.83;100487.85;103186;1312;108606;-62
2021/11/13 06:05:02;;;;;;;64.30;33.60;;;;;;;5.37;87.47;100483.01;103440;1313;138268;-63
2021/11/13 06:07:34;;;;;;;68.30;35.00;;;;;;;5.38;87.50;100494.55;103722;1310;96560;-62
2021/11/13 06:10:09;;;;;;;65.00;33.50;;;;;;;5.38;87.34;100499.39;103846;1310;137566;-62
2021/11/13 06:12:41;;;;;;;64.50;35.40;;;;;;;5.38;87.29;100496.96;103916;1313;111298;-62
2021/11/13 06:15:14;;;;;;;65.00;32.90;;;;;;;5.40;87.37;100495.60;104229;1312;138727;-63
2021/11/13 06:17:46;;;;;;;67.00;34.00;;;;;;;5.40;87.18;100491.46;104918;1310;109156;-63
2021/11/13 06:20:19;;;;;;;61.00;33.80;;;;;;;5.43;87.39;100480.73;104862;1306;94879;-63
2021/11/13 06:22:52;;;;;;;65.80;36.20;;;;;;;5.49;87.30;100489.14;104809;1313;138501;-63
2021/11/13 06:25:24;;;;;;;68.50;35.70;;;;;;;5.53;86.92;100487.55;104873;1310;110941;-63
2021/11/13 06:27:56;;;;;;;70.70;36.20;;;;;;;5.56;87.06;100501.34;104130;1310;137821;-62
2021/11/13 06:30:29;;;;;;;70.80;35.50;;;;;;;5.57;86.84;100519.10;103682;1310;108497;-63
2021/11/13 06:33:01;;;;;;;73.10;37.90;;;;;;;5.59;86.86;100546.86;104810;1309;138548;-63
2021/11/13 06:35:35;;;;;;;65.90;35.10;;;;;;;5.61;86.68;100538.04;104490;1312;94606;-64
2021/11/13 06:38:08;;;;;;;67.80;34.60;;;;;;;5.63;86.53;100519.39;104081;1313;111124;-62
2021/11/13 06:40:40;;;;;;;68.00;33.90;;;;;;;5.64;86.74;100537.85;103473;1313;138539;-62
2021/11/13 06:43:13;;;;;;;67.80;34.00;;;;;;;5.63;86.74;100545.10;104967;1310;109048;-63
2021/11/13 06:45:45;;;;;;;69.80;35.60;;;;;;;5.66;86.61;100541.27;104785;1313;137662;-63
2021/11/13 06:48:18;;;;;;;76.80;37.70;;;;;;;5.67;86.57;100532.46;104928;1315;94866;-63
2021/11/13 06:50:52;;;;;;;65.30;34.80;;;;;;;5.67;86.69;100525.73;104359;1313;138696;-62
2021/11/13 06:53:24;;;;;;;73.20;32.90;;;;;;;5.68;86.50;100529.00;104298;1312;108839;-62
2021/11/13 06:55:57;;;;;;;83.00;35.70;;;;;;;5.67;86.48;100535.56;103441;1313;108859;-62
2021/11/13 06:58:30;;;;;;;81.50;34.00;;;;;;;5.68;86.39;100542.80;104175;1312;139790;-62
2021/11/13 07:01:02;;;;;;;69.80;34.10;;;;;;;5.69;86.46;100537.98;104526;1310;94473;-62
2021/11/13 07:03:34;;;;;;;71.60;35.20;;;;;;;5.72;86.29;100538.98;103539;1312;138472;-64
2021/11/13 07:06:07;;;;;;;73.60;36.60;;;;;;;5.73;86.25;100548.62;103632;1311;110787;-62
2021/11/13 07:08:39;;;;;;;76.70;37.30;;;;;;;5.72;86.01;100552.94;103640;1310;107949;-63
2021/11/13 07:11:12;;;;;;;97.80;38.40;;;;;;;5.72;86.19;100548.98;103432;1312;138403;-63
2021/11/13 07:13:44;;;;;;;64.30;33.60;;;;;;;5.72;86.08;100542.94;104867;1313;94843;-63
2021/11/13 07:16:17;;;;;;;62.80;33.10;;;;;;;5.70;86.27;100531.06;104789;1316;138862;-64
2021/11/13 07:18:50;;;;;;;68.30;33.70;;;;;;;5.70;86.11;100509.99;104155;1316;109073;-64
2021/11/13 07:21:24;;;;;;;60.90;32.00;;;;;;;5.73;86.40;100504.63;104030;1310;139529;-63
2021/11/13 07:23:57;;;;;;;72.50;35.80;;;;;;;5.75;86.05;100509.63;103916;1310;97305;-63
2021/11/13 07:26:30;;;;;;;72.20;37.30;;;;;;;5.77;86.02;100526.54;104054;1318;94833;-63
2021/11/13 07:29:05;;;;;;;78.60;37.30;;;;;;;5.78;85.87;100531.52;104688;1312;138021;-63
2021/11/13 07:31:38;;;;;;;69.30;35.80;;;;;;;5.82;85.89;100537.19;104238;1310;107973;-66
2021/11/13 07:34:10;;;;;;;70.60;36.80;;;;;;;5.83;85.76;100523.54;104795;1310;140450;-64
2021/11/13 07:36:43;;;;;;;69.40;35.10;;;;;;;5.84;85.93;100523.52;104828;1313;94460;-63
2021/11/13 07:39:16;;;;;;;67.20;36.10;;;;;;;5.88;85.83;100525.05;104145;1312;138514;-63
2021/11/13 07:41:48;;;;;;;75.80;37.20;;;;;;;5.92;85.93;100514.69;104302;1310;111254;-63
2021/11/13 07:44:21;;;;;;;80.20;38.50;;;;;;;5.95;85.60;100509.15;104915;1310;108998;-63
2021/11/13 07:46:55;;;;;;;74.10;37.20;;;;;;;5.98;85.43;100504.13;104359;1310;138269;-64
2021/11/13 07:49:28;;;;;;;81.30;38.90;;;;;;;5.99;85.41;100502.55;103779;1310;96497;-62
2021/11/13 07:52:00;;;;;;;74.70;36.40;;;;;;;6.01;85.39;100497.01;103477;1313;139413;-63
2021/11/13 07:54:34;;;;;;;78.50;39.10;;;;;;;6.04;85.25;100495.58;103966;1318;111563;-65
2021/11/13 07:57:08;;;;;;;81.30;40.30;;;;;;;6.10;85.08;100485.17;103540;1312;138766;-63
2021/11/13 07:59:41;;;;;;;80.20;40.30;;;;;;;6.15;85.07;100481.16;104739;1313;107952;-63
2021/11/13 08:02:13;;;;;;;92.10;43.60;;;;;;;6.17;84.78;100474.23;104710;1313;95130;-61
2021/11/13 08:04:46;;;;;;;84.70;40.00;;;;;;;6.19;84.91;100479.74;104643;1310;138016;-64
2021/11/13 08:07:18;;;;;;;83.80;39.50;;;;;;;6.21;84.62;100481.77;103632;1312;110059;-64
2021/11/13 08:09:53;;;;;;;;;;;;;;;6.25;84.71;100475.17;104863;1312;139163;-65
2021/11/13 08:12:25;;;;;;;82.50;38.20;;;;;;;6.28;84.68;100474.63;104873;1310;108087;-62
2021/11/13 08:14:59;;;;;;;84.00;41.30;;;;;;;6.33;84.43;100473.72;104120;1313;138646;-62
2021/11/13 08:17:32;;;;;;;86.30;40.60;;;;;;;6.40;84.27;100471.04;103639;1310;96492;-63
2021/11/13 08:20:06;;;;;;;89.20;41.70;;;;;;;6.43;84.06;100467.54;103668;1310;111398;-62
2021/11/13 08:22:38;;;;;;;94.70;41.10;;;;;;;6.46;83.84;100471.48;104863;1313;138765;-63
2021/11/13 08:25:14;;;;;;;83.10;39.90;;;;;;;6.48;83.70;100470.10;104995;1312;108698;-63
2021/11/13 08:27:46;;;;;;;82.50;38.30;;;;;;;6.49;83.48;100470.08;104833;1306;138958;-63
2021/11/13 08:30:21;;;;;;;81.50;37.80;;;;;;;6.53;83.57;100470.89;104818;1312;94943;-62
2021/11/13 08:32:52;;;;;;;81.10;38.50;;;;;;;6.58;83.10;100473.92;104921;1310;138126;-63
2021/11/13 08:35:25;;;;;;;85.00;39.80;;;;;;;6.66;83.39;100472.81;104994;1306;108729;-63
2021/11/13 08:37:57;;;;;;;88.00;40.70;;;;;;;6.73;82.92;100477.04;105016;1310;107862;-63
2021/11/13 08:40:30;;;;;;;81.80;39.80;;;;;;;6.76;82.86;100473.70;104901;1310;138311;-62
2021/11/13 08:43:03;;;;;;;72.10;37.50;;;;;;;6.77;82.58;100470.41;105012;1307;95255;-64
2021/11/13 08:45:37;;;;;;;79.30;38.90;;;;;;;6.80;82.51;100476.06;104943;1310;138153;-65
2021/11/13 08:48:09;;;;;;;76.30;38.40;;;;;;;6.82;82.26;100477.45;104847;1313;107695;-64
2021/11/13 08:50:45;;;;;;;82.20;40.50;;;;;;;6.85;82.11;100474.12;104958;1310;109062;-64
2021/11/13 08:53:17;;;;;;;83.80;43.00;;;;;;;6.89;82.02;100478.02;104870;1312;138073;-64
2021/11/13 08:55:50;;;;;;;85.30;41.30;;;;;;;6.89;81.81;100477.68;104969;1313;94580;-64
2021/11/13 08:58:22;;;;;;;82.60;41.10;;;;;;;6.90;81.76;100485.27;104796;1311;138427;-64
2021/11/13 09:00:57;;;;;;;77.80;40.30;;;;;;;6.89;81.44;100487.89;104597;1310;108161;-64
2021/11/13 09:03:32;;;;;;;79.40;42.00;;;;;;;6.89;81.15;100484.26;103555;1312;138263;-64
2021/11/13 09:06:09;;;;;;;80.90;42.00;;;;;;;6.87;81.55;100477.55;103636;1312;96606;-64
2021/11/13 09:08:43;;;;;;;86.30;43.40;;;;;;;6.88;81.40;100487.39;104977;1309;96246;-65
2021/11/13 09:11:18;;;;;;;92.60;43.60;;;;;;;6.85;81.37;100482.41;104798;1310;137742;-64
2021/11/13 09:13:52;;;;;;;76.60;39.90;;;;;;;6.82;81.25;100483.83;103631;1313;109004;-64
2021/11/13 09:16:25;;;;;;;83.00;42.40;;;;;;;6.78;81.24;100478.16;104514;1312;139304;-63
2021/11/13 09:18:57;;;;;;;83.90;42.50;;;;;;;6.79;81.21;100475.05;105027;1309;94798;-64
2021/11/13 09:21:31;;;;;;;87.70;45.00;;;;;;;6.80;81.40;100472.27;103735;1310;137838;-63
2021/11/13 09:24:04;;;;;;;87.50;43.90;;;;;;;6.83;81.38;100468.27;104167;1310;111201;-63